Time;durP1;ratioP1;P1;durP2;ratioP2;P2;SDS_P1;SDS_P2;PMS_P1;PMS_P2;Temp;Humidity;BMP_temperature;BMP_pressure;BME280_temperature;BME280_humidity;BME280_pressure;Samples;Min_cycle;Max_cycle;Signal;HPM_P1;HPM_P2
2023/11/08 00:01:35;;;;;;;0.80;0.80;;;6.80;99.90;;;;;;4992382;28;20555;-66
2023/11/08 00:04:02;;;;;;;0.50;0.50;;;6.70;99.90;;;;;;4992241;28;20182;-66
2023/11/08 00:06:27;;;;;;;0.65;0.65;;;6.60;99.90;;;;;;5010026;28;20241;-66
2023/11/08 00:08:53;;;;;;;1.03;0.80;;;6.60;99.90;;;;;;5010331;28;20173;-66
2023/11/08 00:11:23;;;;;;;0.60;0.40;;;6.50;99.90;;;;;;5011376;28;20281;-66
2023/11/08 00:13:51;;;;;;;0.30;0.30;;;6.50;99.90;;;;;;5009326;28;20182;-66
2023/11/08 00:16:20;;;;;;;0.40;0.40;;;6.40;99.90;;;;;;5010460;28;20181;-66
2023/11/08 00:18:45;;;;;;;0.40;0.40;;;6.30;99.90;;;;;;5008704;28;20659;-66
2023/11/08 00:21:11;;;;;;;0.50;0.50;;;6.20;99.90;;;;;;5011380;28;20205;-65
2023/11/08 00:23:39;;;;;;;0.30;0.30;;;6.20;99.90;;;;;;5011341;28;20209;-65
2023/11/08 00:26:08;;;;;;;0.40;0.40;;;6.20;99.90;;;;;;5008695;28;20184;-66
2023/11/08 00:28:34;;;;;;;0.43;0.43;;;6.20;99.90;;;;;;5009893;28;20660;-65
2023/11/08 00:31:01;;;;;;;0.30;0.30;;;6.40;99.90;;;;;;5010149;28;20691;-66
2023/11/08 00:33:28;;;;;;;0.45;0.45;;;6.40;99.90;;;;;;5011456;28;20183;-66
2023/11/08 00:36:02;;;;;;;0.65;0.65;;;6.40;99.90;;;;;;5011420;28;20184;-65
2023/11/08 00:38:28;;;;;;;0.43;0.43;;;6.50;99.90;;;;;;5008701;28;20273;-65
2023/11/08 00:40:54;;;;;;;1.33;1.27;;;6.70;99.90;;;;;;5011302;28;20277;-65
2023/11/08 00:43:20;;;;;;;0.50;0.50;;;6.80;99.90;;;;;;5011109;28;21249;-66
2023/11/08 00:45:46;;;;;;;0.97;0.70;;;6.80;99.90;;;;;;5007245;28;20456;-66
2023/11/08 00:48:12;;;;;;;0.68;0.68;;;6.80;99.90;;;;;;5010681;28;20417;-66
2023/11/08 00:50:38;;;;;;;0.30;0.30;;;6.80;99.90;;;;;;5010831;28;20198;-66
2023/11/08 00:53:03;;;;;;;0.50;0.47;;;6.90;99.90;;;;;;5010123;28;20504;-66
2023/11/08 00:55:29;;;;;;;1.13;1.07;;;6.80;99.90;;;;;;5011033;28;20178;-66
2023/11/08 00:57:56;;;;;;;0.70;0.70;;;6.90;99.90;;;;;;5011244;28;20206;-66
2023/11/08 01:00:24;;;;;;;0.60;0.60;;;6.90;99.90;;;;;;5011165;28;20195;-66
2023/11/08 01:02:50;;;;;;;0.65;0.50;;;6.90;99.90;;;;;;5011339;28;20208;-66
2023/11/08 01:05:16;;;;;;;0.50;0.50;;;7.00;99.90;;;;;;5011445;28;20546;-66
2023/11/08 01:07:41;;;;;;;0.40;0.40;;;7.00;99.90;;;;;;5011109;28;20834;-66
2023/11/08 01:10:07;;;;;;;0.50;0.50;;;7.10;99.90;;;;;;5011056;28;20619;-66
2023/11/08 01:12:34;;;;;;;0.40;0.40;;;7.10;99.90;;;;;;5011220;28;20186;-67
2023/11/08 01:15:00;;;;;;;0.63;0.63;;;7.10;99.90;;;;;;5011079;28;20183;-66
2023/11/08 01:17:26;;;;;;;0.40;0.40;;;7.10;99.90;;;;;;5011213;28;20688;-65
2023/11/08 01:19:52;;;;;;;0.90;0.50;;;7.00;99.90;;;;;;5011078;28;20274;-66
2023/11/08 01:22:17;;;;;;;0.60;0.60;;;7.10;99.90;;;;;;5010983;28;20996;-66
2023/11/08 01:24:43;;;;;;;8.03;2.40;;;7.10;99.90;;;;;;5011468;28;20179;-66
2023/11/08 01:27:09;;;;;;;0.70;0.70;;;7.20;99.90;;;;;;5012175;28;20174;-66
2023/11/08 01:29:35;;;;;;;0.40;0.40;;;7.30;99.90;;;;;;5014515;28;20478;-66
2023/11/08 01:32:02;;;;;;;0.55;0.55;;;7.30;99.90;;;;;;5014802;28;20179;-65
2023/11/08 01:34:28;;;;;;;3.10;0.60;;;7.40;99.90;;;;;;5014655;28;20178;-65
2023/11/08 01:36:54;;;;;;;0.60;0.60;;;7.40;99.90;;;;;;5014497;28;20261;-66
2023/11/08 01:39:19;;;;;;;0.70;0.70;;;7.30;99.90;;;;;;5014353;28;20651;-67
2023/11/08 01:41:48;;;;;;;0.50;0.50;;;7.30;99.90;;;;;;5014487;28;20173;-66
2023/11/08 01:44:19;;;;;;;0.60;0.50;;;7.40;99.90;;;;;;5014697;28;20224;-65
2023/11/08 01:46:47;;;;;;;0.40;0.40;;;7.50;99.90;;;;;;5014371;28;20194;-66
2023/11/08 01:49:13;;;;;;;0.70;0.70;;;7.50;99.90;;;;;;5014122;28;20181;-66
2023/11/08 01:51:40;;;;;;;1.73;0.50;;;7.60;99.90;;;;;;5014251;28;20660;-65
2023/11/08 01:54:07;;;;;;;0.40;0.40;;;7.60;99.90;;;;;;5014209;28;20449;-68
2023/11/08 01:56:34;;;;;;;0.40;0.38;;;7.60;99.90;;;;;;5014347;28;20187;-66
2023/11/08 01:59:00;;;;;;;0.30;0.30;;;7.50;99.90;;;;;;5014013;28;20174;-65
2023/11/08 02:01:26;;;;;;;0.60;0.60;;;7.40;99.90;;;;;;5014181;28;20168;-65
2023/11/08 02:03:53;;;;;;;0.40;0.40;;;7.40;99.90;;;;;;5013921;28;20569;-65
2023/11/08 02:06:19;;;;;;;0.40;0.40;;;7.50;99.90;;;;;;5013970;28;20175;-65
2023/11/08 02:08:45;;;;;;;0.45;0.45;;;7.50;99.90;;;;;;5013786;28;20170;-66
2023/11/08 02:11:12;;;;;;;1.30;1.05;;;7.60;99.90;;;;;;5013937;28;20226;-65
2023/11/08 02:13:42;;;;;;;0.40;0.40;;;7.50;99.90;;;;;;5014051;28;20701;-65
2023/11/08 02:16:08;;;;;;;1.02;0.63;;;7.50;99.90;;;;;;5013974;28;20224;-65
2023/11/08 02:18:33;;;;;;;1.97;0.63;;;7.50;99.90;;;;;;5013542;28;20186;-65
2023/11/08 02:21:00;;;;;;;7.43;0.50;;;7.50;99.90;;;;;;5013710;28;20273;-65
2023/11/08 02:23:26;;;;;;;2.90;0.70;;;7.30;99.90;;;;;;5013689;28;20206;-65
2023/11/08 02:25:55;;;;;;;0.77;0.60;;;7.30;99.90;;;;;;5013765;28;20175;-65
2023/11/08 02:28:21;;;;;;;0.50;0.50;;;7.30;99.90;;;;;;5013512;28;20171;-65
2023/11/08 02:30:54;;;;;;;0.47;0.47;;;7.30;99.90;;;;;;5013492;28;20222;-65
2023/11/08 02:33:27;;;;;;;0.30;0.30;;;7.40;99.90;;;;;;5013594;28;20164;-66
2023/11/08 02:35:54;;;;;;;1.05;0.73;;;7.40;99.90;;;;;;5013461;28;20673;-65
2023/11/08 02:38:20;;;;;;;0.50;0.40;;;7.40;99.90;;;;;;5013362;28;20187;-66
2023/11/08 02:40:46;;;;;;;0.50;0.50;;;7.50;99.90;;;;;;5012669;28;20253;-65
2023/11/08 02:43:12;;;;;;;0.70;0.70;;;7.50;99.90;;;;;;5013290;28;20457;-66
2023/11/08 02:45:39;;;;;;;0.63;0.63;;;7.40;99.90;;;;;;5013819;28;20202;-67
2023/11/08 02:48:08;;;;;;;0.30;0.30;;;7.40;99.90;;;;;;5012139;28;20176;-66
2023/11/08 02:50:38;;;;;;;1.77;0.60;;;7.40;99.90;;;;;;5013170;28;20275;-65
2023/11/08 02:53:04;;;;;;;0.50;0.50;;;7.50;99.90;;;;;;5013207;28;20664;-65
2023/11/08 02:55:31;;;;;;;1.38;0.57;;;7.50;99.90;;;;;;5013052;28;20674;-65
2023/11/08 02:57:57;;;;;;;1.05;0.93;;;7.50;99.90;;;;;;5012891;28;20228;-65
2023/11/08 03:00:22;;;;;;;0.50;0.50;;;7.50;99.90;;;;;;5012816;28;20230;-65
2023/11/08 03:02:51;;;;;;;1.17;0.80;;;7.60;99.90;;;;;;5013015;28;20906;-65
2023/11/08 03:05:21;;;;;;;0.40;0.40;;;7.60;99.90;;;;;;5013000;28;20199;-65
2023/11/08 03:07:50;;;;;;;0.40;0.40;;;7.60;99.90;;;;;;5012650;28;20724;-65
2023/11/08 03:10:17;;;;;;;0.93;0.93;;;7.70;99.90;;;;;;5011401;28;20195;-65
2023/11/08 03:12:47;;;;;;;1.30;0.80;;;7.70;99.90;;;;;;5012759;28;20207;-65
2023/11/08 03:15:16;;;;;;;0.70;0.70;;;7.60;99.90;;;;;;5012841;28;20174;-65
2023/11/08 03:17:44;;;;;;;0.80;0.73;;;7.60;99.90;;;;;;5012326;28;20241;-65
2023/11/08 03:20:12;;;;;;;0.40;0.40;;;7.50;99.90;;;;;;5012532;28;20205;-65
2023/11/08 03:22:39;;;;;;;0.40;0.40;;;7.50;99.90;;;;;;5012658;28;20348;-65
2023/11/08 03:25:06;;;;;;;2.75;1.30;;;7.60;99.90;;;;;;5012532;28;20582;-65
2023/11/08 03:27:31;;;;;;;0.50;0.50;;;7.70;99.90;;;;;;5012742;28;20223;-65
2023/11/08 03:29:57;;;;;;;0.67;0.67;;;7.60;99.90;;;;;;5012306;28;20213;-65
2023/11/08 03:32:27;;;;;;;1.07;1.07;;;7.70;99.90;;;;;;5012695;28;20178;-66
2023/11/08 03:34:54;;;;;;;0.30;0.30;;;7.70;99.90;;;;;;5012459;28;21139;-65
2023/11/08 03:37:21;;;;;;;0.88;0.88;;;7.60;99.90;;;;;;5012369;28;20190;-65
2023/11/08 03:39:47;;;;;;;2.13;0.63;;;7.70;99.90;;;;;;5012048;28;20206;-65
2023/11/08 03:42:13;;;;;;;0.80;0.50;;;7.60;99.90;;;;;;5012333;28;20806;-66
2023/11/08 03:44:38;;;;;;;0.87;0.87;;;7.40;99.90;;;;;;5012289;28;20259;-65
2023/11/08 03:47:06;;;;;;;0.40;0.40;;;7.40;99.90;;;;;;5010522;28;20504;-65
2023/11/08 03:49:34;;;;;;;0.40;0.40;;;7.60;99.90;;;;;;5011863;28;20698;-65
2023/11/08 03:52:03;;;;;;;0.40;0.40;;;7.60;99.90;;;;;;5012320;28;20202;-65
2023/11/08 03:54:28;;;;;;;2.80;1.20;;;7.70;99.90;;;;;;5011958;28;20649;-65
2023/11/08 03:56:54;;;;;;;0.50;0.50;;;7.70;99.90;;;;;;5011907;28;20270;-65
2023/11/08 03:59:20;;;;;;;1.07;0.50;;;7.70;99.90;;;;;;5011763;28;20262;-65
2023/11/08 04:01:46;;;;;;;0.70;0.70;;;7.70;99.90;;;;;;5011830;28;20187;-65
2023/11/08 04:04:12;;;;;;;0.40;0.40;;;7.60;99.90;;;;;;5012018;28;20556;-66
2023/11/08 04:06:38;;;;;;;0.53;0.53;;;7.70;99.90;;;;;;5012352;28;20195;-65
2023/11/08 04:09:04;;;;;;;1.00;0.60;;;7.70;99.90;;;;;;5011650;28;20180;-65
2023/11/08 04:11:30;;;;;;;3.05;0.98;;;7.70;99.90;;;;;;5011909;28;20700;-65
2023/11/08 04:13:56;;;;;;;2.05;0.50;;;7.80;99.90;;;;;;5011773;28;20175;-65
2023/11/08 04:16:22;;;;;;;1.00;0.87;;;7.90;99.90;;;;;;5011785;28;20657;-66
2023/11/08 04:18:48;;;;;;;0.50;0.50;;;7.80;99.90;;;;;;5011519;28;20845;-65
2023/11/08 04:21:14;;;;;;;0.40;0.40;;;7.80;99.90;;;;;;5011862;28;20289;-65
2023/11/08 04:23:40;;;;;;;0.53;0.53;;;7.80;99.90;;;;;;5011756;28;20301;-65
2023/11/08 04:26:06;;;;;;;0.93;0.87;;;7.70;99.90;;;;;;5011789;28;20163;-65
2023/11/08 04:28:32;;;;;;;0.40;0.40;;;7.60;99.90;;;;;;5011566;28;20183;-66
2023/11/08 04:30:58;;;;;;;0.50;0.50;;;7.70;99.90;;;;;;5010082;28;20665;-66
2023/11/08 04:33:24;;;;;;;0.67;0.67;;;7.70;99.90;;;;;;5011403;28;20205;-66
2023/11/08 04:35:50;;;;;;;0.80;0.40;;;7.70;99.90;;;;;;5011825;28;20575;-66
2023/11/08 04:38:16;;;;;;;0.50;0.50;;;7.80;99.90;;;;;;5011476;28;20471;-66
2023/11/08 04:40:42;;;;;;;1.73;1.63;;;7.90;99.90;;;;;;5011628;28;20207;-65
2023/11/08 04:43:08;;;;;;;0.40;0.40;;;7.80;99.90;;;;;;5011574;28;20723;-65
2023/11/08 04:45:36;;;;;;;0.60;0.60;;;7.80;99.90;;;;;;5011615;28;20190;-66
2023/11/08 04:48:03;;;;;;;0.65;0.65;;;7.80;99.90;;;;;;5011410;28;20187;-65
2023/11/08 04:50:29;;;;;;;0.40;0.40;;;7.60;99.90;;;;;;5011315;28;20732;-66
2023/11/08 04:52:55;;;;;;;1.00;1.00;;;7.60;99.90;;;;;;5011588;28;20194;-65
2023/11/08 04:55:21;;;;;;;0.50;0.50;;;7.60;99.90;;;;;;5011593;28;20214;-66
2023/11/08 04:57:47;;;;;;;0.60;0.60;;;7.70;99.90;;;;;;5010699;28;20679;-65
2023/11/08 05:00:14;;;;;;;0.40;0.40;;;7.60;99.90;;;;;;5011293;28;20227;-66
2023/11/08 05:02:40;;;;;;;0.40;0.40;;;7.60;99.90;;;;;;5012227;28;20465;-66
2023/11/08 05:05:09;;;;;;;0.40;0.40;;;7.60;99.90;;;;;;5015017;28;20248;-65
2023/11/08 05:07:35;;;;;;;0.95;0.73;;;7.60;99.90;;;;;;5013075;28;20426;-65
2023/11/08 05:10:01;;;;;;;0.40;0.40;;;7.60;99.90;;;;;;5015043;28;20209;-66
2023/11/08 05:12:28;;;;;;;1.15;0.93;;;7.50;99.90;;;;;;5015537;28;20185;-65
2023/11/08 05:14:53;;;;;;;1.77;1.27;;;7.60;99.90;;;;;;5013961;28;20178;-65
2023/11/08 05:17:20;;;;;;;1.27;1.23;;;7.50;99.90;;;;;;5014788;28;20732;-65
2023/11/08 05:19:46;;;;;;;0.40;0.40;;;7.50;99.90;;;;;;5014677;28;20337;-65
2023/11/08 05:22:12;;;;;;;1.30;1.20;;;7.50;99.90;;;;;;5014519;28;20201;-65
2023/11/08 05:24:38;;;;;;;0.50;0.50;;;7.50;99.90;;;;;;5015081;28;20467;-65
2023/11/08 05:27:07;;;;;;;1.43;0.83;;;7.40;99.90;;;;;;5014564;28;20641;-65
2023/11/08 05:29:32;;;;;;;0.93;0.93;;;7.40;99.90;;;;;;5014224;28;20447;-65
2023/11/08 05:31:59;;;;;;;4.83;0.90;;;7.40;99.90;;;;;;5014225;28;20233;-66
2023/11/08 05:34:27;;;;;;;0.40;0.40;;;7.40;99.90;;;;;;5014612;28;20192;-66
2023/11/08 05:36:53;;;;;;;1.35;0.98;;;7.40;99.90;;;;;;5014478;28;20175;-65
2023/11/08 05:39:22;;;;;;;1.37;1.37;;;7.40;99.90;;;;;;5014101;28;20625;-65
2023/11/08 05:41:48;;;;;;;1.20;0.68;;;7.50;99.90;;;;;;5013697;28;20644;-66
2023/11/08 05:44:15;;;;;;;0.60;0.60;;;7.50;99.90;;;;;;5014411;28;20172;-65
2023/11/08 05:46:41;;;;;;;1.25;1.25;;;7.50;99.90;;;;;;5013726;28;20175;-66
2023/11/08 05:49:08;;;;;;;1.50;0.77;;;7.60;99.90;;;;;;5014275;28;20178;-66
2023/11/08 05:51:34;;;;;;;0.40;0.40;;;7.60;99.90;;;;;;5014544;28;20183;-66
2023/11/08 05:54:00;;;;;;;0.87;0.87;;;7.50;99.90;;;;;;5014499;28;20189;-65
2023/11/08 05:56:27;;;;;;;0.50;0.50;;;7.40;99.90;;;;;;5014255;28;20179;-66
2023/11/08 05:58:52;;;;;;;0.50;0.50;;;7.50;99.90;;;;;;5014472;28;20700;-66
2023/11/08 06:01:20;;;;;;;0.50;0.50;;;7.50;99.90;;;;;;5014055;28;20210;-65
2023/11/08 06:03:45;;;;;;;0.60;0.40;;;7.60;99.90;;;;;;5014027;28;20243;-66
2023/11/08 06:06:11;;;;;;;0.63;0.50;;;7.50;99.90;;;;;;5014034;28;20192;-65
2023/11/08 06:08:37;;;;;;;3.13;1.30;;;7.50;99.90;;;;;;5013872;28;20168;-65
2023/11/08 06:11:07;;;;;;;1.17;1.17;;;7.60;99.90;;;;;;5013982;28;20238;-66
2023/11/08 06:13:34;;;;;;;0.90;0.90;;;7.70;99.90;;;;;;5013380;28;20183;-65
2023/11/08 06:16:00;;;;;;;1.20;0.93;;;7.70;99.90;;;;;;5013428;28;20191;-66
2023/11/08 06:18:26;;;;;;;0.93;0.63;;;7.70;99.90;;;;;;5013671;28;20201;-65
2023/11/08 06:20:53;;;;;;;1.05;1.05;;;7.70;99.90;;;;;;5013912;28;20275;-65
2023/11/08 06:23:19;;;;;;;1.25;1.15;;;7.80;99.90;;;;;;5013752;28;20211;-66
2023/11/08 06:25:44;;;;;;;1.10;1.10;;;7.80;99.90;;;;;;5013771;28;20254;-66
2023/11/08 06:28:10;;;;;;;0.43;0.37;;;7.80;99.90;;;;;;5013487;28;20230;-65
2023/11/08 06:30:35;;;;;;;0.60;0.40;;;7.80;99.90;;;;;;5013483;28;20213;-65
2023/11/08 06:33:02;;;;;;;0.73;0.73;;;7.80;99.90;;;;;;5013682;28;20169;-66
2023/11/08 06:35:28;;;;;;;1.00;1.00;;;7.70;99.90;;;;;;5013591;28;20643;-65
2023/11/08 06:37:53;;;;;;;0.40;0.40;;;7.60;99.90;;;;;;5013347;28;20183;-66
2023/11/08 06:40:19;;;;;;;0.73;0.73;;;7.60;99.90;;;;;;5013223;28;20433;-65
2023/11/08 06:42:46;;;;;;;0.40;0.40;;;7.70;99.90;;;;;;5013344;28;20538;-65
2023/11/08 06:45:12;;;;;;;0.63;0.63;;;7.70;99.90;;;;;;5014102;28;20263;-65
2023/11/08 06:47:38;;;;;;;0.90;0.90;;;7.70;99.90;;;;;;5013418;28;20208;-66
2023/11/08 06:50:04;;;;;;;1.07;0.70;;;7.80;99.90;;;;;;5013094;28;20191;-65
2023/11/08 06:52:30;;;;;;;0.50;0.50;;;7.80;99.90;;;;;;5013391;28;20982;-66
2023/11/08 06:54:56;;;;;;;0.60;0.60;;;7.80;99.90;;;;;;5013176;28;20183;-66
2023/11/08 06:57:21;;;;;;;0.40;0.40;;;7.70;99.90;;;;;;5013006;28;20179;-65
2023/11/08 06:59:47;;;;;;;0.40;0.40;;;7.80;99.90;;;;;;5012848;28;20195;-65
2023/11/08 07:02:13;;;;;;;0.50;0.50;;;7.80;99.90;;;;;;5012978;28;20221;-66
2023/11/08 07:04:39;;;;;;;0.50;0.50;;;7.80;99.90;;;;;;5012740;28;20655;-65
2023/11/08 07:07:05;;;;;;;0.43;0.43;;;7.80;99.90;;;;;;5012567;28;20181;-66
2023/11/08 07:09:31;;;;;;;0.53;0.53;;;7.60;99.90;;;;;;5012641;28;20233;-66
2023/11/08 07:11:57;;;;;;;1.90;1.13;;;7.60;99.90;;;;;;5011635;28;20437;-66
2023/11/08 07:14:23;;;;;;;0.98;0.85;;;7.70;99.90;;;;;;5012552;28;20424;-65
2023/11/08 07:16:49;;;;;;;1.00;1.00;;;7.70;99.90;;;;;;5012586;28;20183;-66
2023/11/08 07:19:14;;;;;;;3.53;1.60;;;7.80;99.90;;;;;;5012683;28;20259;-66
2023/11/08 07:21:40;;;;;;;1.57;0.80;;;7.80;99.90;;;;;;5012837;28;20218;-65
2023/11/08 07:24:09;;;;;;;0.90;0.90;;;7.80;99.90;;;;;;5012556;28;20210;-65
2023/11/08 07:26:34;;;;;;;0.40;0.40;;;7.80;99.90;;;;;;5012249;28;20203;-66
2023/11/08 07:29:04;;;;;;;0.57;0.57;;;7.70;99.90;;;;;;5012240;28;20207;-66
2023/11/08 07:31:34;;;;;;;1.15;1.00;;;7.80;99.90;;;;;;5012645;28;20187;-66
2023/11/08 07:34:00;;;;;;;0.50;0.40;;;7.90;99.90;;;;;;5012555;28;20171;-66
2023/11/08 07:36:29;;;;;;;0.60;0.60;;;8.00;99.90;;;;;;5012463;28;20175;-66
2023/11/08 07:38:56;;;;;;;0.60;0.60;;;8.10;99.90;;;;;;5012108;28;20568;-65
2023/11/08 07:41:22;;;;;;;0.60;0.60;;;8.20;99.90;;;;;;5012527;28;20218;-65
2023/11/08 07:43:48;;;;;;;0.88;0.88;;;8.30;99.90;;;;;;5012356;28;20604;-66
2023/11/08 07:46:14;;;;;;;0.40;0.40;;;8.40;99.90;;;;;;5012277;28;20172;-65
2023/11/08 07:48:39;;;;;;;0.70;0.50;;;8.40;99.90;;;;;;5012483;28;20170;-65
2023/11/08 07:51:08;;;;;;;0.40;0.40;;;8.40;99.90;;;;;;5011902;28;20557;-66
2023/11/08 07:53:34;;;;;;;0.70;0.60;;;8.40;99.90;;;;;;5012103;28;20168;-66
2023/11/08 07:56:00;;;;;;;0.80;0.80;;;8.40;99.90;;;;;;5012320;28;20180;-66
2023/11/08 07:58:26;;;;;;;0.40;0.40;;;8.50;99.90;;;;;;5011915;28;20494;-66
2023/11/08 08:00:52;;;;;;;1.13;1.02;;;8.50;99.90;;;;;;5012049;28;20639;-66
2023/11/08 08:03:17;;;;;;;0.40;0.40;;;8.50;99.90;;;;;;5012181;28;20230;-66
2023/11/08 08:05:48;;;;;;;0.50;0.50;;;8.40;99.90;;;;;;5012544;28;20225;-66
2023/11/08 08:08:14;;;;;;;0.45;0.45;;;8.40;99.90;;;;;;5011720;28;20222;-66
2023/11/08 08:10:44;;;;;;;1.40;0.60;;;8.50;99.90;;;;;;5011973;28;20590;-66
2023/11/08 08:13:10;;;;;;;0.45;0.43;;;8.60;99.90;;;;;;5010532;28;20410;-66
2023/11/08 08:15:36;;;;;;;0.47;0.47;;;8.70;99.90;;;;;;5012051;28;20612;-66
2023/11/08 08:18:02;;;;;;;0.50;0.50;;;8.70;99.90;;;;;;5011211;28;20258;-65
2023/11/08 08:20:28;;;;;;;1.40;1.00;;;8.70;99.90;;;;;;5011556;28;20191;-66
2023/11/08 08:22:55;;;;;;;0.95;0.95;;;8.70;99.90;;;;;;5011288;28;20897;-65
2023/11/08 08:25:22;;;;;;;0.60;0.60;;;8.60;99.90;;;;;;5011295;28;20649;-66
2023/11/08 08:27:47;;;;;;;5.70;2.15;;;8.60;99.90;;;;;;5011841;28;20175;-65
2023/11/08 08:30:16;;;;;;;0.70;0.70;;;8.60;99.90;;;;;;5011481;28;20341;-68
2023/11/08 08:32:47;;;;;;;0.40;0.40;;;8.60;99.80;;;;;;5011541;28;20179;-65
2023/11/08 08:35:13;;;;;;;0.50;0.50;;;8.60;99.90;;;;;;5011277;28;20198;-65
2023/11/08 08:37:39;;;;;;;0.40;0.40;;;8.60;99.90;;;;;;5012335;28;20225;-64
2023/11/08 08:40:12;;;;;;;0.70;0.70;;;8.70;99.90;;;;;;5015060;28;20206;-64
2023/11/08 08:42:39;;;;;;;0.57;0.57;;;8.70;99.80;;;;;;5011624;28;20245;-64
2023/11/08 08:45:06;;;;;;;0.50;0.50;;;8.70;99.90;;;;;;5015266;28;20262;-62
2023/11/08 08:47:33;;;;;;;0.38;0.38;;;8.90;99.90;;;;;;5014696;28;20653;-65
2023/11/08 08:49:58;;;;;;;0.60;0.40;;;9.40;99.90;;;;;;5014803;28;20205;-65
2023/11/08 08:52:25;;;;;;;0.67;0.67;;;9.60;99.90;;;;;;5015203;28;20179;-65
2023/11/08 08:54:52;;;;;;;0.50;0.50;;;9.70;99.90;;;;;;5014755;28;20183;-65
2023/11/08 08:57:17;;;;;;;0.83;0.40;;;9.90;99.70;;;;;;5014775;28;20531;-64
2023/11/08 08:59:43;;;;;;;0.73;0.60;;;10.10;98.60;;;;;;5014667;28;20947;-65
2023/11/08 09:02:10;;;;;;;0.70;0.70;;;10.20;97.80;;;;;;5014665;28;20214;-67
2023/11/08 09:04:36;;;;;;;0.82;0.77;;;10.30;97.30;;;;;;5015066;28;20526;-65
2023/11/08 09:07:03;;;;;;;2.40;1.10;;;10.30;97.10;;;;;;5014699;28;20234;-65
2023/11/08 09:09:29;;;;;;;0.50;0.50;;;10.40;97.30;;;;;;5014458;28;20199;-65
2023/11/08 09:11:55;;;;;;;0.60;0.60;;;10.40;96.40;;;;;;5014646;28;20186;-65
2023/11/08 09:14:21;;;;;;;0.83;0.60;;;10.60;96.00;;;;;;5014726;28;20171;-65
2023/11/08 09:16:46;;;;;;;5.20;0.93;;;10.70;96.10;;;;;;5014352;28;20418;-65
2023/11/08 09:19:12;;;;;;;0.87;0.87;;;10.90;95.90;;;;;;5014248;28;20411;-65
2023/11/08 09:21:38;;;;;;;1.27;0.87;;;10.90;95.40;;;;;;5014592;28;20186;-65
2023/11/08 09:24:06;;;;;;;0.50;0.50;;;10.80;95.00;;;;;;5014633;28;20191;-65
2023/11/08 09:26:33;;;;;;;0.95;0.60;;;10.60;95.40;;;;;;5014307;28;20187;-65
2023/11/08 09:28:59;;;;;;;0.68;0.68;;;10.50;95.50;;;;;;5014086;28;20294;-65
2023/11/08 09:31:28;;;;;;;1.48;0.68;;;10.50;95.60;;;;;;5014274;28;20660;-65
2023/11/08 09:33:56;;;;;;;0.60;0.60;;;10.40;95.90;;;;;;5011827;28;20180;-66
2023/11/08 09:36:23;;;;;;;0.40;0.40;;;10.40;95.70;;;;;;5014405;28;20178;-66
2023/11/08 09:38:50;;;;;;;0.50;0.50;;;10.30;95.20;;;;;;5013913;28;20595;-65
2023/11/08 09:41:17;;;;;;;0.40;0.40;;;10.30;95.40;;;;;;5014186;28;20569;-66
2023/11/08 09:43:44;;;;;;;1.55;0.88;;;10.40;95.70;;;;;;5014062;28;20673;-66
2023/11/08 09:46:11;;;;;;;1.50;1.40;;;10.50;95.00;;;;;;5013898;28;20179;-67
2023/11/08 09:48:37;;;;;;;0.45;0.45;;;10.70;95.20;;;;;;5013716;28;20176;-66
2023/11/08 09:51:03;;;;;;;1.10;0.60;;;10.90;95.00;;;;;;5013920;28;20194;-66
2023/11/08 09:53:30;;;;;;;2.93;0.80;;;11.60;95.30;;;;;;5014043;28;20981;-67
2023/11/08 09:55:59;;;;;;;0.90;0.83;;;12.20;92.70;;;;;;5013726;28;20427;-67
2023/11/08 09:58:25;;;;;;;1.07;0.70;;;13.10;93.10;;;;;;5013583;28;20540;-66
2023/11/08 10:00:55;;;;;;;1.47;0.70;;;13.70;90.70;;;;;;5013650;28;20940;-66
2023/11/08 10:03:25;;;;;;;1.70;0.80;;;13.90;90.30;;;;;;5011211;28;20550;-66
2023/11/08 10:05:54;;;;;;;0.63;0.40;;;13.50;90.00;;;;;;5013830;28;20454;-66
2023/11/08 10:08:20;;;;;;;2.07;1.07;;;12.70;90.10;;;;;;5010934;28;20417;-66
2023/11/08 10:10:48;;;;;;;0.40;0.40;;;12.20;90.70;;;;;;5013632;28;20426;-66
2023/11/08 10:13:15;;;;;;;0.90;0.50;;;11.80;91.40;;;;;;5013569;28;20202;-66
2023/11/08 10:15:44;;;;;;;1.80;0.90;;;11.50;92.20;;;;;;5013766;28;20407;-66
2023/11/08 10:18:10;;;;;;;0.47;0.40;;;11.30;92.80;;;;;;5013429;28;20426;-66
2023/11/08 10:20:37;;;;;;;2.53;1.37;;;11.20;92.50;;;;;;5013562;28;20457;-67
2023/11/08 10:23:05;;;;;;;6.47;1.07;;;11.30;93.10;;;;;;5013292;28;20450;-67
2023/11/08 10:25:32;;;;;;;1.43;1.33;;;11.40;93.30;;;;;;5013112;28;20910;-67
2023/11/08 10:28:05;;;;;;;1.67;1.23;;;11.40;93.00;;;;;;5013323;28;20402;-67
2023/11/08 10:30:33;;;;;;;1.27;1.27;;;11.50;92.00;;;;;;5012962;28;20919;-67
2023/11/08 10:33:14;;;;;;;0.47;0.47;;;11.50;92.70;;;;;;5013110;28;20419;-66
2023/11/08 10:35:42;;;;;;;0.53;0.50;;;11.70;92.30;;;;;;5013558;28;20803;-66
2023/11/08 10:38:10;;;;;;;1.93;1.83;;;11.40;92.60;;;;;;5013257;28;20402;-66
2023/11/08 10:40:36;;;;;;;2.17;0.67;;;11.30;92.50;;;;;;5013654;28;20465;-66
2023/11/08 10:43:03;;;;;;;1.27;0.50;;;11.30;92.90;;;;;;5013995;28;20995;-66
2023/11/08 10:45:32;;;;;;;0.80;0.40;;;11.20;92.90;;;;;;5013494;28;20199;-66
2023/11/08 10:47:59;;;;;;;0.50;0.50;;;11.10;92.20;;;;;;5013208;28;20807;-66
2023/11/08 10:50:26;;;;;;;0.47;0.43;;;11.00;92.40;;;;;;5012951;28;20422;-66
2023/11/08 10:52:52;;;;;;;1.20;0.93;;;10.80;93.60;;;;;;5013152;28;20818;-66
2023/11/08 10:55:23;;;;;;;5.47;2.33;;;10.80;94.20;;;;;;5013232;28;20403;-66
2023/11/08 10:57:53;;;;;;;0.50;0.50;;;10.70;93.90;;;;;;5013285;28;20438;-66
2023/11/08 11:00:21;;;;;;;0.57;0.57;;;10.90;93.50;;;;;;5012363;28;20439;-66
2023/11/08 11:02:57;;;;;;;0.40;0.40;;;10.80;93.10;;;;;;5013197;28;20458;-66
2023/11/08 11:05:24;;;;;;;0.40;0.40;;;10.80;93.70;;;;;;5013289;28;20394;-65
2023/11/08 11:07:51;;;;;;;0.60;0.60;;;10.80;94.40;;;;;;5012029;28;20833;-66
2023/11/08 11:10:18;;;;;;;0.67;0.67;;;10.80;94.60;;;;;;5012422;28;20523;-67
2023/11/08 11:12:54;;;;;;;0.60;0.60;;;10.80;94.90;;;;;;5012623;28;20500;-67
2023/11/08 11:15:30;;;;;;;4.77;0.70;;;10.80;95.80;;;;;;5012757;28;20498;-66
2023/11/08 11:17:59;;;;;;;0.50;0.50;;;11.00;95.20;;;;;;5011840;28;20425;-67
2023/11/08 11:20:32;;;;;;;0.67;0.60;;;11.00;94.80;;;;;;5012175;28;20529;-67
2023/11/08 11:22:58;;;;;;;0.97;0.80;;;11.10;94.30;;;;;;5010709;28;20472;-67
2023/11/08 11:25:47;;;;;;;1.63;0.77;;;11.10;93.20;;;;;;5012353;28;20415;-66
2023/11/08 11:28:13;;;;;;;0.40;0.40;;;11.00;93.60;;;;;;5009938;28;20599;-67
2023/11/08 11:30:39;;;;;;;0.60;0.60;;;10.90;94.30;;;;;;5012485;28;20438;-66
2023/11/08 11:33:05;;;;;;;0.40;0.40;;;10.90;94.20;;;;;;5012781;28;20418;-66
2023/11/08 11:35:30;;;;;;;0.73;0.73;;;11.00;93.50;;;;;;5012516;28;20630;-67
2023/11/08 11:38:12;;;;;;;0.77;0.77;;;11.20;93.50;;;;;;5012401;28;20417;-67
2023/11/08 11:40:38;;;;;;;0.77;0.77;;;11.30;93.10;;;;;;5011567;28;20708;-67
2023/11/08 11:43:33;;;;;;;0.80;0.70;;;11.40;93.30;;;;;;5012308;28;20580;-66
2023/11/08 11:46:02;;;;;;;0.40;0.40;;;11.50;92.70;;;;;;5009270;28;20406;-66
2023/11/08 11:48:32;;;;;;;0.43;0.43;;;11.50;92.50;;;;;;5011664;28;20414;-67
2023/11/08 11:50:58;;;;;;;0.50;0.50;;;11.50;93.00;;;;;;5011636;28;21041;-66
2023/11/08 11:53:29;;;;;;;0.83;0.83;;;11.60;93.70;;;;;;5011696;28;20489;-67
2023/11/08 11:56:08;;;;;;;0.40;0.40;;;11.70;94.10;;;;;;5011844;28;20402;-67
2023/11/08 11:58:35;;;;;;;1.60;0.57;;;11.60;94.80;;;;;;5011784;28;20410;-67
2023/11/08 12:01:05;;;;;;;0.50;0.40;;;11.50;93.70;;;;;;5021903;28;20948;-67
2023/11/08 12:03:32;;;;;;;1.23;0.93;;;11.70;93.60;;;;;;5018470;28;20468;-67
2023/11/08 12:05:58;;;;;;;0.60;0.60;;;12.00;92.80;;;;;;5021110;28;20405;-67
2023/11/08 12:08:28;;;;;;;1.70;0.70;;;12.20;92.10;;;;;;5022352;28;20414;-67
2023/11/08 12:11:13;;;;;;;6.73;1.80;;;12.40;92.00;;;;;;5023520;28;20434;-66
2023/11/08 12:13:53;;;;;;;0.70;0.70;;;12.40;90.90;;;;;;5020113;28;20406;-66
2023/11/08 12:16:19;;;;;;;1.23;1.00;;;12.10;90.90;;;;;;5020722;28;20410;-66
2023/11/08 12:18:50;;;;;;;1.40;0.70;;;11.90;91.20;;;;;;5020095;28;20406;-67
2023/11/08 12:21:17;;;;;;;0.40;0.40;;;11.90;91.60;;;;;;5021146;28;20457;-67
2023/11/08 12:23:46;;;;;;;1.67;1.57;;;11.70;91.20;;;;;;5021822;28;20453;-67
2023/11/08 12:26:12;;;;;;;0.80;0.50;;;11.60;91.90;;;;;;5020965;28;20403;-67
2023/11/08 12:28:42;;;;;;;0.90;0.90;;;11.70;92.20;;;;;;5020086;28;20409;-66
2023/11/08 12:31:11;;;;;;;0.50;0.50;;;11.70;92.00;;;;;;5017195;28;20458;-67
2023/11/08 12:33:37;;;;;;;0.80;0.80;;;11.90;92.40;;;;;;5019338;28;20945;-67
2023/11/08 12:36:05;;;;;;;0.97;0.67;;;11.90;91.80;;;;;;5022226;28;20983;-66
2023/11/08 12:38:35;;;;;;;0.40;0.40;;;12.00;92.10;;;;;;5018558;28;20938;-67
2023/11/08 12:41:05;;;;;;;0.93;0.70;;;12.10;92.40;;;;;;5019126;28;20437;-67
2023/11/08 12:43:31;;;;;;;0.60;0.60;;;12.20;91.60;;;;;;5010859;28;20452;-67
2023/11/08 12:46:07;;;;;;;0.70;0.60;;;12.20;91.60;;;;;;5011355;28;20403;-67
2023/11/08 12:48:35;;;;;;;0.83;0.50;;;12.00;91.40;;;;;;5010393;28;20493;-67
2023/11/08 12:51:09;;;;;;;0.40;0.40;;;11.90;92.10;;;;;;5011504;28;20434;-67
2023/11/08 12:53:35;;;;;;;0.60;0.60;;;11.80;91.40;;;;;;5011563;28;20410;-67